createdAt,value
2018-07-17T00:02:20.413Z,18.58
2018-07-17T00:04:47.592Z,18.82
2018-07-17T00:07:14.630Z,18.99
2018-07-17T00:09:41.762Z,18.70
2018-07-17T00:12:08.805Z,18.79
2018-07-17T00:14:35.860Z,18.75
2018-07-17T00:17:02.976Z,18.78
2018-07-17T00:19:29.980Z,18.62
2018-07-17T00:21:57.077Z,18.58
2018-07-17T00:24:24.096Z,18.54
2018-07-17T00:26:51.123Z,18.59
2018-07-17T00:29:18.350Z,18.67
2018-07-17T00:31:45.384Z,18.48
2018-07-17T00:34:12.407Z,18.71
2018-07-17T00:36:39.461Z,18.30
2018-07-17T00:39:06.841Z,17.75
2018-07-17T00:41:33.850Z,17.97
2018-07-17T00:44:01.113Z,18.22
2018-07-17T00:46:28.123Z,18.32
2018-07-17T00:48:55.207Z,18.27
2018-07-17T00:51:22.299Z,18.41
2018-07-17T00:53:49.250Z,18.33
2018-07-17T00:56:16.321Z,18.28
2018-07-17T00:58:43.335Z,18.29
2018-07-17T01:01:09.983Z,18.21
2018-07-17T01:03:42.552Z,18.02
2018-07-17T01:06:15.324Z,17.85
2018-07-17T01:08:48.214Z,17.57
2018-07-17T01:11:20.977Z,17.77
2018-07-17T01:13:59.068Z,17.85
2018-07-17T01:16:26.220Z,17.76
2018-07-17T01:18:53.253Z,17.79
2018-07-17T01:21:20.284Z,17.91
2018-07-17T01:23:47.300Z,17.76
2018-07-17T01:26:14.308Z,17.63
2018-07-17T01:28:41.329Z,17.54
2018-07-17T01:31:08.355Z,17.89
2018-07-17T01:33:35.381Z,18.04
2018-07-17T01:36:02.426Z,18.09
2018-07-17T01:38:29.576Z,18.05
2018-07-17T01:41:03.605Z,17.91
2018-07-17T01:43:30.706Z,17.50
2018-07-17T01:45:57.737Z,17.85
2018-07-17T01:48:24.768Z,18.04
2018-07-17T01:50:51.817Z,18.05
2018-07-17T01:53:19.011Z,17.92
2018-07-17T01:55:46.032Z,17.76
2018-07-17T01:58:13.109Z,17.34
2018-07-17T02:00:40.173Z,17.17
2018-07-17T02:03:07.310Z,17.66
2018-07-17T02:05:34.327Z,17.64
2018-07-17T02:08:01.361Z,17.61
2018-07-17T02:10:28.379Z,17.50
2018-07-17T02:12:55.418Z,17.08
2018-07-17T02:15:22.449Z,17.19
2018-07-17T02:17:49.482Z,17.41
2018-07-17T02:20:16.489Z,17.56
2018-07-17T02:22:43.491Z,17.29
2018-07-17T02:25:10.521Z,17.02
2018-07-17T02:27:37.787Z,17.14
2018-07-17T02:30:04.836Z,17.21
2018-07-17T02:32:31.830Z,17.25
2018-07-17T02:34:58.876Z,17.15
2018-07-17T02:37:25.886Z,17.29
2018-07-17T02:39:52.901Z,17.22
2018-07-17T02:42:19.952Z,17.24
2018-07-17T02:44:46.961Z,17.42
2018-07-17T02:47:13.983Z,17.09
2018-07-17T02:49:40.988Z,16.78
2018-07-17T02:52:08.013Z,16.56
2018-07-17T02:54:35.014Z,16.91
2018-07-17T02:57:02.333Z,16.56
2018-07-17T02:59:29.422Z,16.61
2018-07-17T03:01:56.501Z,16.53
2018-07-17T03:04:23.542Z,16.71
2018-07-17T03:06:50.622Z,16.78
2018-07-17T03:09:17.599Z,16.62
2018-07-17T03:11:44.620Z,16.54
2018-07-17T03:14:11.640Z,16.48
2018-07-17T03:16:38.727Z,16.52
2018-07-17T03:19:05.774Z,16.14
2018-07-17T03:21:32.780Z,16.26
2018-07-17T03:23:59.829Z,16.49
2018-07-17T03:26:26.824Z,16.67
2018-07-17T03:28:53.846Z,16.70
2018-07-17T03:31:20.864Z,17.03
2018-07-17T03:33:47.873Z,16.98
2018-07-17T03:36:14.945Z,16.78
2018-07-17T03:38:41.957Z,16.74
2018-07-17T03:41:08.981Z,16.50
2018-07-17T03:43:36.003Z,16.50
2018-07-17T03:46:03.016Z,16.68
2018-07-17T03:48:30.641Z,16.84
2018-07-17T03:50:57.700Z,16.96
2018-07-17T03:53:24.932Z,17.07
2018-07-17T03:55:51.978Z,16.97
2018-07-17T03:58:19.064Z,16.55
2018-07-17T04:00:46.132Z,16.08
2018-07-17T04:03:13.242Z,16.62
2018-07-17T04:05:40.422Z,16.58
2018-07-17T04:08:07.546Z,16.61
2018-07-17T04:10:34.621Z,16.33
2018-07-17T04:13:01.636Z,16.04
2018-07-17T04:15:28.636Z,15.89
2018-07-17T04:17:55.662Z,16.42
2018-07-17T04:20:22.672Z,16.61
2018-07-17T04:22:49.729Z,16.70
2018-07-17T04:25:16.844Z,16.75
2018-07-17T04:27:43.842Z,16.97
2018-07-17T04:32:52.297Z,16.75
2018-07-17T04:35:19.313Z,16.89
2018-07-17T04:37:46.335Z,17.04
2018-07-17T04:40:13.347Z,17.03
2018-07-17T04:42:40.730Z,16.96
2018-07-17T04:45:07.744Z,16.99
2018-07-17T04:47:34.753Z,17.21
2018-07-17T04:50:01.843Z,17.26
2018-07-17T04:52:28.909Z,17.40
2018-07-17T04:54:55.925Z,17.34
2018-07-17T04:57:22.985Z,17.61
2018-07-17T04:59:50.001Z,17.74
2018-07-17T05:02:17.006Z,17.72
2018-07-17T05:04:44.057Z,17.74
2018-07-17T05:07:11.093Z,17.67
2018-07-17T05:09:38.134Z,17.57
2018-07-17T05:12:05.187Z,17.95
2018-07-17T05:14:32.201Z,18.08
2018-07-17T05:16:59.988Z,18.20
2018-07-17T05:19:27.012Z,18.28
2018-07-17T05:21:54.097Z,18.13
2018-07-17T05:24:21.141Z,17.68
2018-07-17T05:26:48.195Z,17.96
2018-07-17T05:29:15.210Z,18.07
2018-07-17T05:31:42.299Z,18.05
2018-07-17T05:34:09.309Z,18.14
2018-07-17T05:36:36.368Z,18.20
2018-07-17T05:39:05.758Z,18.26
2018-07-17T05:41:32.878Z,18.28
2018-07-17T05:43:59.900Z,18.38
2018-07-17T05:46:26.990Z,18.46
2018-07-17T05:48:54.021Z,18.53
2018-07-17T05:51:21.049Z,18.62
2018-07-17T05:53:48.050Z,18.76
2018-07-17T05:56:15.063Z,18.81
2018-07-17T05:58:42.111Z,18.95
2018-07-17T06:01:09.121Z,19.12
2018-07-17T06:03:40.275Z,19.16
2018-07-17T06:06:07.392Z,19.19
2018-07-17T06:08:34.594Z,19.28
2018-07-17T06:11:01.753Z,19.47
2018-07-17T06:13:28.780Z,19.59
2018-07-17T06:15:55.872Z,19.64
2018-07-17T06:18:22.895Z,19.70
2018-07-17T06:20:49.999Z,19.86
2018-07-17T06:23:17.049Z,19.95
2018-07-17T06:25:47.670Z,19.97
2018-07-17T06:28:14.701Z,19.98
2018-07-17T06:30:41.977Z,20.07
2018-07-17T06:33:09.091Z,20.16
2018-07-17T06:35:36.173Z,20.20
2018-07-17T06:38:03.292Z,20.28
2018-07-17T06:40:30.329Z,20.36
2018-07-17T06:42:57.352Z,20.44
2018-07-17T06:45:24.438Z,20.49
2018-07-17T06:47:51.473Z,20.62
2018-07-17T06:50:18.640Z,20.83
2018-07-17T06:52:45.708Z,20.92
2018-07-17T06:55:12.737Z,20.93
2018-07-17T06:57:39.988Z,21.06
2018-07-17T07:00:07.219Z,21.30
2018-07-17T07:02:34.318Z,21.40
2018-07-17T07:05:01.341Z,21.40
2018-07-17T07:07:28.445Z,21.46
2018-07-17T07:09:55.453Z,21.51
2018-07-17T07:12:22.453Z,21.60
2018-07-17T07:14:49.545Z,21.72
2018-07-17T07:17:16.606Z,21.87
2018-07-17T07:19:43.716Z,22.00
2018-07-17T07:22:10.904Z,22.03
2018-07-17T07:24:37.902Z,22.14
2018-07-17T07:27:04.987Z,22.26
2018-07-17T07:29:32.085Z,22.24
2018-07-17T07:31:59.123Z,22.28
2018-07-17T07:34:26.375Z,22.37
2018-07-17T07:36:53.428Z,22.44
2018-07-17T07:39:20.470Z,22.57
2018-07-17T07:41:48.066Z,22.71
2018-07-17T07:44:15.192Z,22.79
2018-07-17T07:46:42.210Z,22.82
2018-07-17T07:49:09.271Z,22.95
2018-07-17T07:51:36.358Z,23.06
2018-07-17T07:56:37.248Z,23.14
2018-07-17T07:59:04.320Z,23.19
2018-07-17T08:01:31.349Z,23.32
2018-07-17T08:03:58.445Z,23.46
2018-07-17T08:06:25.405Z,23.44
2018-07-17T08:08:52.650Z,23.54
2018-07-17T08:11:19.697Z,23.61
2018-07-17T08:13:46.743Z,23.73
2018-07-17T08:16:13.785Z,23.90
2018-07-17T08:18:40.917Z,23.97
2018-07-17T08:21:08.028Z,23.98
2018-07-17T08:23:35.092Z,24.10
2018-07-17T08:26:02.122Z,24.11
2018-07-17T08:28:29.189Z,24.00
2018-07-17T08:30:56.228Z,24.11
2018-07-17T08:33:23.251Z,24.22
2018-07-17T08:35:50.286Z,24.28
2018-07-17T08:38:17.747Z,24.35
2018-07-17T08:40:44.780Z,24.42
2018-07-17T08:43:11.935Z,24.76
2018-07-17T08:45:38.927Z,24.82
2018-07-17T08:48:05.966Z,24.76
2018-07-17T08:50:33.577Z,24.82
2018-07-17T08:53:00.586Z,25.09
2018-07-17T08:55:27.599Z,25.12
2018-07-17T08:57:54.958Z,25.07
2018-07-17T09:00:22.149Z,25.13
2018-07-17T09:02:49.236Z,25.18
2018-07-17T09:05:16.353Z,25.17
2018-07-17T09:07:43.677Z,25.29
2018-07-17T09:10:11.029Z,25.37
2018-07-17T09:12:38.794Z,25.53
2018-07-17T09:15:06.242Z,25.55
2018-07-17T09:17:33.551Z,25.61
2018-07-17T09:20:00.963Z,25.67
2018-07-17T09:22:28.174Z,25.71
2018-07-17T09:24:55.452Z,25.73
2018-07-17T09:27:22.856Z,25.86
2018-07-17T09:29:50.218Z,25.98
2018-07-17T09:32:19.887Z,26.24
2018-07-17T09:34:48.017Z,26.19
2018-07-17T09:37:15.442Z,26.14
2018-07-17T09:39:43.181Z,26.16
2018-07-17T09:42:10.281Z,26.33
2018-07-17T09:44:37.566Z,26.29
2018-07-17T09:47:05.288Z,26.48
2018-07-17T09:49:32.400Z,26.52
2018-07-17T09:51:59.529Z,26.63
2018-07-17T09:54:26.673Z,26.67
2018-07-17T09:56:53.999Z,26.68
2018-07-17T09:59:21.520Z,26.63
2018-07-17T10:01:54.949Z,26.71
2018-07-17T10:04:22.005Z,26.85
2018-07-17T10:06:49.189Z,26.94
2018-07-17T10:09:16.683Z,27.07
2018-07-17T10:11:43.882Z,27.07
2018-07-17T10:14:11.151Z,27.14
2018-07-17T10:16:38.540Z,27.01
2018-07-17T10:19:05.829Z,27.11
2018-07-17T10:21:33.077Z,27.32
2018-07-17T10:24:00.421Z,27.23
2018-07-17T10:26:27.728Z,27.32
2018-07-17T10:28:54.952Z,27.38
2018-07-17T10:31:22.373Z,27.47
2018-07-17T10:33:49.733Z,27.49
2018-07-17T10:36:16.808Z,27.54
2018-07-17T10:38:43.940Z,27.63
2018-07-17T10:41:11.594Z,27.66
2018-07-17T10:43:38.862Z,27.55
2018-07-17T10:46:06.389Z,27.54
2018-07-17T10:48:33.755Z,27.73
2018-07-17T10:51:00.838Z,27.65
2018-07-17T10:53:28.453Z,27.71
2018-07-17T10:55:55.537Z,27.74
2018-07-17T10:58:22.786Z,27.78
2018-07-17T11:00:50.133Z,27.83
2018-07-17T11:03:17.281Z,27.87
2018-07-17T11:05:44.650Z,27.91
2018-07-17T11:08:11.999Z,27.96
2018-07-17T11:10:39.104Z,27.86
2018-07-17T11:13:06.362Z,28.06
2018-07-17T11:15:35.438Z,27.73
2018-07-17T11:18:03.637Z,28.05
2018-07-17T11:20:32.149Z,28.07
2018-07-17T11:23:01.638Z,27.93
2018-07-17T11:25:30.050Z,27.98
2018-07-17T11:27:58.689Z,27.97
2018-07-17T11:30:27.032Z,27.89
2018-07-17T11:32:54.861Z,28.02
2018-07-17T11:35:22.579Z,28.14
2018-07-17T11:37:51.660Z,28.13
2018-07-17T11:40:19.652Z,28.19
2018-07-17T11:42:47.634Z,28.09
2018-07-17T11:45:15.676Z,28.06
2018-07-17T11:47:43.677Z,28.07
2018-07-17T11:50:11.362Z,28.07
2018-07-17T11:52:39.739Z,28.15
2018-07-17T11:55:07.901Z,28.13
2018-07-17T11:57:35.760Z,28.25
2018-07-17T12:00:03.714Z,28.31
2018-07-17T12:02:31.498Z,28.39
2018-07-17T12:04:59.544Z,28.40
2018-07-17T12:07:26.605Z,28.55
2018-07-17T12:09:53.632Z,28.39
2018-07-17T12:12:20.812Z,28.52
2018-07-17T12:14:47.820Z,28.48
2018-07-17T12:17:14.918Z,28.46
2018-07-17T12:19:41.941Z,28.60
2018-07-17T12:22:08.971Z,28.81
2018-07-17T12:24:36.074Z,28.98
2018-07-17T12:27:03.224Z,29.13
2018-07-17T12:29:30.397Z,29.33
2018-07-17T12:31:57.439Z,29.44
2018-07-17T12:34:24.498Z,29.52
2018-07-17T12:36:51.578Z,29.65
2018-07-17T12:39:18.728Z,30.22
2018-07-17T12:41:45.756Z,30.43
2018-07-17T12:44:13.266Z,30.56
2018-07-17T12:46:40.279Z,30.91
2018-07-17T12:49:07.316Z,30.84
2018-07-17T12:51:34.552Z,30.99
2018-07-17T12:54:01.821Z,31.18
2018-07-17T12:56:28.858Z,31.06
2018-07-17T12:58:55.900Z,31.51
2018-07-17T13:01:23.036Z,31.63
2018-07-17T13:03:50.429Z,31.83
2018-07-17T13:06:17.503Z,31.71
2018-07-17T13:08:44.561Z,31.76
2018-07-17T13:11:11.690Z,31.06
2018-07-17T13:13:38.810Z,31.48
2018-07-17T13:16:06.537Z,31.53
2018-07-17T13:18:33.584Z,32.03
2018-07-17T13:21:00.706Z,31.83
2018-07-17T13:23:27.912Z,32.16
2018-07-17T13:25:54.946Z,31.99
2018-07-17T13:28:22.109Z,32.64
2018-07-17T13:30:49.207Z,33.34
2018-07-17T13:33:16.223Z,32.75
2018-07-17T13:35:43.564Z,32.33
2018-07-17T13:38:10.674Z,33.22
2018-07-17T13:40:37.785Z,33.47
2018-07-17T13:43:04.949Z,33.06
2018-07-17T13:45:32.049Z,32.46
2018-07-17T13:47:59.074Z,32.79
2018-07-17T13:50:26.120Z,33.60
2018-07-17T13:52:53.327Z,32.34
2018-07-17T13:55:20.331Z,32.51
2018-07-17T13:57:47.361Z,32.90
2018-07-17T14:00:14.446Z,33.03
2018-07-17T14:02:41.938Z,32.71
2018-07-17T14:05:09.501Z,33.06
2018-07-17T14:07:36.644Z,32.53
2018-07-17T14:10:03.744Z,32.66
2018-07-17T14:12:30.855Z,33.40
2018-07-17T14:14:57.926Z,32.28
2018-07-17T14:17:24.954Z,32.71
2018-07-17T14:19:51.996Z,32.44
2018-07-17T14:22:19.115Z,32.36
2018-07-17T14:24:47.025Z,31.86
2018-07-17T14:27:14.096Z,32.43
2018-07-17T14:29:41.134Z,32.34
2018-07-17T14:32:08.171Z,32.59
2018-07-17T14:34:35.277Z,32.82
2018-07-17T14:37:02.637Z,32.03
2018-07-17T14:39:29.680Z,32.18
2018-07-17T14:41:56.789Z,32.10
2018-07-17T14:44:24.135Z,32.50
2018-07-17T14:46:51.208Z,32.38
2018-07-17T14:49:18.277Z,32.37
2018-07-17T14:51:45.433Z,31.96
2018-07-17T14:54:12.473Z,32.15
2018-07-17T14:56:39.519Z,32.04
2018-07-17T14:59:07.052Z,31.87
2018-07-17T15:01:34.115Z,31.71
2018-07-17T15:04:01.231Z,32.24
2018-07-17T15:06:28.348Z,32.35
2018-07-17T15:08:55.492Z,31.54
2018-07-17T15:11:22.708Z,31.30
2018-07-17T15:13:49.816Z,30.95
2018-07-17T15:16:16.973Z,30.99
2018-07-17T15:18:44.080Z,30.92
2018-07-17T15:21:11.094Z,30.48
2018-07-17T15:23:38.140Z,30.23
2018-07-17T15:26:05.203Z,30.50
2018-07-17T15:28:32.307Z,30.56
2018-07-17T15:30:59.373Z,30.38
2018-07-17T15:33:26.478Z,30.38
2018-07-17T15:35:53.654Z,30.30
2018-07-17T15:38:20.740Z,30.25
2018-07-17T15:40:47.953Z,29.92
2018-07-17T15:43:15.120Z,30.02
2018-07-17T15:45:42.261Z,30.01
2018-07-17T15:48:09.444Z,30.02
2018-07-17T15:50:36.448Z,29.88
2018-07-17T15:53:03.480Z,29.81
2018-07-17T15:55:30.617Z,30.11
2018-07-17T15:57:57.729Z,30.18
2018-07-17T16:00:24.904Z,30.44
2018-07-17T16:02:51.924Z,30.62
2018-07-17T16:05:18.987Z,30.35
2018-07-17T16:07:46.149Z,30.10
2018-07-17T16:10:13.268Z,30.51
2018-07-17T16:12:40.408Z,30.26
2018-07-17T16:15:07.540Z,30.32
2018-07-17T16:17:35.053Z,30.09
2018-07-17T16:20:04.032Z,29.95
2018-07-17T16:22:31.040Z,29.75
2018-07-17T16:24:58.094Z,29.87
2018-07-17T16:27:25.123Z,29.71
2018-07-17T16:29:52.175Z,29.65
2018-07-17T16:32:19.228Z,29.38
2018-07-17T16:34:46.300Z,29.29
2018-07-17T16:37:13.344Z,29.64
2018-07-17T16:39:40.479Z,29.56
2018-07-17T16:42:07.745Z,29.65
2018-07-17T16:44:34.856Z,29.63
2018-07-17T16:47:01.883Z,29.36
2018-07-17T16:49:28.969Z,29.26
2018-07-17T16:51:56.096Z,29.44
2018-07-17T16:54:23.108Z,29.33
2018-07-17T16:56:50.217Z,29.36
2018-07-17T16:59:17.300Z,29.28
2018-07-17T17:01:44.367Z,29.10
2018-07-17T17:04:11.392Z,29.03
2018-07-17T17:06:38.505Z,28.96
2018-07-17T17:09:08.083Z,29.00
2018-07-17T17:11:34.986Z,28.97
2018-07-17T17:14:02.050Z,28.76
2018-07-17T17:16:29.168Z,28.75
2018-07-17T17:18:56.177Z,28.51
2018-07-17T17:21:23.197Z,28.40
2018-07-17T17:23:50.280Z,28.33
2018-07-17T17:26:17.362Z,28.25
2018-07-17T17:28:44.377Z,28.29
2018-07-17T17:31:11.438Z,28.24
2018-07-17T17:33:38.484Z,28.19
2018-07-17T17:36:05.515Z,28.12
2018-07-17T17:38:32.544Z,28.02
2018-07-17T17:40:59.633Z,28.06
2018-07-17T17:43:26.637Z,28.01
2018-07-17T17:45:53.699Z,27.86
2018-07-17T17:48:20.712Z,27.94
2018-07-17T17:50:47.734Z,27.76
2018-07-17T17:53:14.754Z,27.67
2018-07-17T17:55:42.066Z,27.64
2018-07-17T17:58:09.068Z,27.53
2018-07-17T18:00:36.092Z,27.56
2018-07-17T18:03:03.112Z,27.44
2018-07-17T18:05:30.116Z,27.36
2018-07-17T18:07:57.166Z,27.33
2018-07-17T18:10:24.197Z,27.24
2018-07-17T18:12:51.669Z,27.17
2018-07-17T18:15:18.678Z,27.07
2018-07-17T18:17:45.688Z,27.03
2018-07-17T18:20:12.727Z,26.96
2018-07-17T18:22:39.796Z,26.87
2018-07-17T18:25:06.836Z,26.80
2018-07-17T18:27:33.829Z,26.78
2018-07-17T18:30:01.113Z,26.65
2018-07-17T18:32:28.159Z,26.57
2018-07-17T18:34:55.241Z,26.48
2018-07-17T18:37:22.276Z,26.44
2018-07-17T18:39:49.374Z,26.37
2018-07-17T18:42:16.492Z,26.35
2018-07-17T18:44:43.432Z,26.26
2018-07-17T18:47:10.573Z,26.22
2018-07-17T18:49:37.692Z,26.16
2018-07-17T18:52:04.756Z,26.05
2018-07-17T18:54:31.802Z,25.98
2018-07-17T18:56:59.429Z,25.94
2018-07-17T18:59:26.552Z,25.88
2018-07-17T19:01:53.737Z,25.79
2018-07-17T19:04:20.853Z,25.71
2018-07-17T19:06:47.881Z,25.68
2018-07-17T19:09:14.897Z,25.57
2018-07-17T19:11:41.925Z,25.47
2018-07-17T19:14:08.926Z,25.24
2018-07-17T19:16:36.940Z,25.00
2018-07-17T19:19:04.313Z,24.49
2018-07-17T19:21:31.362Z,24.12
2018-07-17T19:23:58.511Z,23.75
2018-07-17T19:26:25.596Z,23.31
2018-07-17T19:28:53.281Z,23.18
2018-07-17T19:31:20.328Z,22.91
2018-07-17T19:33:47.380Z,22.77
2018-07-17T19:36:14.421Z,22.67
2018-07-17T19:38:41.456Z,22.43
2018-07-17T19:41:08.584Z,22.43
2018-07-17T19:43:35.807Z,22.24
2018-07-17T19:46:02.905Z,22.24
2018-07-17T19:48:30.019Z,21.98
2018-07-17T19:50:57.062Z,21.95
2018-07-17T19:53:24.112Z,21.80
2018-07-17T19:55:51.129Z,21.77
2018-07-17T19:58:18.168Z,21.71
2018-07-17T20:00:45.200Z,21.66
2018-07-17T20:03:12.225Z,21.52
2018-07-17T20:05:39.297Z,21.49
2018-07-17T20:08:07.203Z,21.49
2018-07-17T20:10:34.821Z,21.53
2018-07-17T20:13:02.930Z,21.47
2018-07-17T20:15:30.750Z,21.35
2018-07-17T20:17:58.741Z,21.36
2018-07-17T20:20:26.614Z,21.35
2018-07-17T20:22:53.717Z,21.26
2018-07-17T20:25:20.773Z,21.23
2018-07-17T20:27:50.742Z,21.21
2018-07-17T20:30:18.985Z,21.22
2018-07-17T20:32:46.739Z,21.20
2018-07-17T20:35:14.959Z,21.17
2018-07-17T20:37:45.683Z,21.06
2018-07-17T20:40:18.329Z,21.06
2018-07-17T20:42:48.838Z,21.13
2018-07-17T20:45:19.806Z,21.10
2018-07-17T20:47:48.427Z,21.04
2018-07-17T20:50:15.712Z,21.05
2018-07-17T20:52:43.158Z,20.95
2018-07-17T20:55:10.282Z,21.00
2018-07-17T20:57:37.672Z,21.01
2018-07-17T21:00:05.323Z,20.86
2018-07-17T21:02:32.589Z,20.97
2018-07-17T21:05:03.012Z,20.77
2018-07-17T21:07:30.226Z,20.88
2018-07-17T21:09:57.556Z,20.93
2018-07-17T21:12:25.641Z,20.89
2018-07-17T21:14:52.972Z,20.82
2018-07-17T21:17:20.025Z,20.72
2018-07-17T21:19:47.174Z,20.74
2018-07-17T21:22:18.829Z,20.75
2018-07-17T21:24:53.719Z,20.71
2018-07-17T21:27:26.513Z,20.70
2018-07-17T21:29:55.961Z,20.58
2018-07-17T21:32:28.206Z,20.61
2018-07-17T21:34:58.435Z,20.59
2018-07-17T21:37:28.682Z,20.58
2018-07-17T21:39:59.053Z,20.58
2018-07-17T21:42:27.982Z,20.57
2018-07-17T21:44:55.476Z,20.48
2018-07-17T21:47:22.577Z,20.53
2018-07-17T21:49:49.668Z,20.54
2018-07-17T21:52:19.583Z,20.52
2018-07-17T21:54:49.160Z,20.51
2018-07-17T21:57:17.052Z,20.43
2018-07-17T21:59:45.499Z,20.38
2018-07-17T22:02:14.335Z,20.33
2018-07-17T22:04:42.441Z,20.34
2018-07-17T22:07:11.886Z,20.33
2018-07-17T22:09:42.031Z,20.35
2018-07-17T22:12:17.098Z,20.29
2018-07-17T22:14:45.940Z,20.29
2018-07-17T22:17:14.646Z,20.20
2018-07-17T22:19:45.234Z,20.18
2018-07-17T22:22:16.129Z,20.15
2018-07-17T22:24:46.276Z,20.16
2018-07-17T22:27:13.450Z,20.15
2018-07-17T22:29:43.511Z,20.18
2018-07-17T22:32:13.439Z,20.16
2018-07-17T22:34:42.647Z,20.42
2018-07-17T22:37:13.332Z,20.33
2018-07-17T22:39:44.655Z,20.29
2018-07-17T22:42:11.964Z,20.36
2018-07-17T22:44:39.161Z,20.26
2018-07-17T22:47:06.305Z,20.13
2018-07-17T22:49:33.710Z,20.11
2018-07-17T22:52:01.633Z,20.09
2018-07-17T22:54:29.009Z,20.10
2018-07-17T22:56:56.152Z,20.17
2018-07-17T22:59:23.445Z,19.97
2018-07-17T23:01:51.098Z,19.88
2018-07-17T23:04:18.535Z,19.83
2018-07-17T23:06:45.722Z,19.75
2018-07-17T23:09:12.861Z,19.68
2018-07-17T23:11:40.302Z,19.67
2018-07-17T23:14:08.112Z,19.69
2018-07-17T23:16:35.585Z,19.64
2018-07-17T23:19:03.291Z,19.67
2018-07-17T23:21:30.500Z,19.62
2018-07-17T23:23:57.659Z,19.45
2018-07-17T23:26:24.889Z,19.46
2018-07-17T23:28:52.374Z,19.25
2018-07-17T23:31:19.901Z,19.12
2018-07-17T23:33:47.518Z,19.12
2018-07-17T23:36:14.722Z,19.17
2018-07-17T23:38:42.123Z,19.17
2018-07-17T23:41:09.341Z,19.07
2018-07-17T23:43:38.857Z,18.98
2018-07-17T23:46:08.269Z,18.93
2018-07-17T23:48:35.488Z,18.84
2018-07-17T23:51:02.569Z,18.84
2018-07-17T23:53:29.865Z,19.17
2018-07-17T23:55:57.232Z,19.63
2018-07-17T23:58:24.277Z,19.43
